createdAt,value
2022-11-06T00:00:37.595Z,1025.9
2022-11-06T00:06:22.356Z,1026
2022-11-06T00:11:51.490Z,1025.9
2022-11-06T00:17:16.204Z,1025.6
2022-11-06T00:23:00.694Z,1025.4
2022-11-06T00:28:44.286Z,1025.3
2022-11-06T00:34:11.145Z,1025.4
2022-11-06T00:39:49.455Z,1025.5
2022-11-06T00:45:10.631Z,1025.5
2022-11-06T00:50:28.218Z,1025.6
2022-11-06T00:56:24.572Z,1025.6
2022-11-06T01:01:36.533Z,1025.6
2022-11-06T01:07:10.532Z,1025.6
2022-11-06T01:12:58.687Z,1025.6
2022-11-06T01:18:32.176Z,1025.5
2022-11-06T01:23:59.217Z,1025.7
2022-11-06T01:29:25.637Z,1025.6
2022-11-06T01:35:01.448Z,1025.6
2022-11-06T01:40:15.773Z,1025.5
2022-11-06T01:45:51.786Z,1025.4
2022-11-06T01:51:34.912Z,1025.3
2022-11-06T01:57:13.163Z,1025.4
2022-11-06T02:02:35.985Z,1025.4
2022-11-06T02:07:52.900Z,1025.3
2022-11-06T02:13:30.066Z,1025.3
2022-11-06T02:19:02.823Z,1025
2022-11-06T02:24:38.786Z,1024.9
2022-11-06T02:30:02.870Z,1024.8
2022-11-06T02:35:57.493Z,1024.7
2022-11-06T02:41:31.042Z,1024.7
2022-11-06T02:46:38.932Z,1024.7
2022-11-06T02:52:24.106Z,1024.8
2022-11-06T02:57:54.678Z,1024.8
2022-11-06T03:03:40.784Z,1024.7
2022-11-06T03:08:59.474Z,1024.5
2022-11-06T03:14:37.105Z,1024.5
2022-11-06T03:19:50.054Z,1024.6
2022-11-06T03:25:23.890Z,1024.6
2022-11-06T03:31:06.560Z,1024.6
2022-11-06T03:36:36.078Z,1024.7
2022-11-06T03:42:08.687Z,1024.6
2022-11-06T03:47:48.614Z,1024.5
2022-11-06T03:53:23.536Z,1024.4
2022-11-06T03:58:52.097Z,1024.5
2022-11-06T04:09:49.649Z,1024.5
2022-11-06T04:15:25.192Z,1024.4
2022-11-06T04:21:06.787Z,1024.4
2022-11-06T04:26:32.781Z,1024.5
2022-11-06T04:32:05.070Z,1024.5
2022-11-06T04:37:25.347Z,1024.4
2022-11-06T04:43:13.495Z,1024.3
2022-11-06T04:48:28.900Z,1024.2
2022-11-06T04:54:02.026Z,1024
2022-11-06T04:59:51.963Z,1024.1
2022-11-06T05:04:59.543Z,1024
2022-11-06T05:10:51.308Z,1024
2022-11-06T05:16:22.357Z,1024
2022-11-06T05:21:36.789Z,1023.9
2022-11-06T05:27:05.836Z,1023.8
2022-11-06T05:32:39.044Z,1023.8
2022-11-06T05:38:33.621Z,1023.7
2022-11-06T05:44:01.118Z,1023.6
2022-11-06T05:49:38.698Z,1023.6
2022-11-06T05:55:14.971Z,1023.6
2022-11-06T06:00:27.582Z,1023.5
2022-11-06T06:06:14.141Z,1023.4
2022-11-06T06:11:31.904Z,1023.4
2022-11-06T06:17:19.158Z,1023.3
2022-11-06T06:22:53.029Z,1023.2
2022-11-06T06:28:16.366Z,1023.4
2022-11-06T06:33:42.936Z,1023.2
2022-11-06T06:44:41.106Z,1023.3
2022-11-06T06:50:12.338Z,1023
2022-11-06T06:55:49.798Z,1022.8
2022-11-06T07:01:14.591Z,1022.9
2022-11-06T07:07:05.681Z,1023.2
2022-11-06T07:12:35.312Z,1022.8
2022-11-06T07:17:58.192Z,1022.9
2022-11-06T07:23:35.514Z,1022.9
2022-11-06T07:28:56.783Z,1022.8
2022-11-06T07:34:34.261Z,1022.8
2022-11-06T07:40:04.702Z,1022.9
2022-11-06T07:45:44.786Z,1023
2022-11-06T07:51:07.469Z,1023
2022-11-06T07:56:32.491Z,1023
2022-11-06T08:02:28.430Z,1022.9
2022-11-06T08:07:50.526Z,1023
2022-11-06T08:13:34.216Z,1022.7
2022-11-06T08:18:55.194Z,1022.6
2022-11-06T08:24:32.003Z,1022.4
2022-11-06T08:29:53.382Z,1022.6
2022-11-06T08:35:46.070Z,1022.6
2022-11-06T08:41:04.286Z,1022.6
2022-11-06T08:46:34.441Z,1022.4
2022-11-06T08:52:17.991Z,1022.6
2022-11-06T08:57:30.082Z,1022.4
2022-11-06T09:03:15.018Z,1022.5
2022-11-06T09:08:51.935Z,1022.3
2022-11-06T09:14:26.750Z,1022.2
2022-11-06T09:19:46.028Z,1022.2
2022-11-06T09:25:30.460Z,1022
2022-11-06T09:30:41.355Z,1022.2
2022-11-06T09:36:19.131Z,1022.1
2022-11-06T09:41:55.837Z,1021.8
2022-11-06T09:47:19.948Z,1021.8
2022-11-06T09:52:58.287Z,1021.8
2022-11-06T09:58:39.680Z,1021.9
2022-11-06T10:03:55.402Z,1021.7
2022-11-06T10:09:48.379Z,1021.7
2022-11-06T10:14:59.239Z,1021.6
2022-11-06T10:20:58.832Z,1021.5
2022-11-06T10:26:10.525Z,1021.7
2022-11-06T10:31:37.533Z,1021.8
2022-11-06T10:37:13.493Z,1021.5
2022-11-06T10:42:51.706Z,1021.5
2022-11-06T10:48:30.934Z,1021.4
2022-11-06T10:54:12.446Z,1021.3
2022-11-06T10:59:43.047Z,1021.2
2022-11-06T11:05:12.038Z,1021.2
2022-11-06T11:10:35.159Z,1021.1
2022-11-06T11:16:06.569Z,1020.8
2022-11-06T11:21:56.234Z,1020.8
2022-11-06T11:27:18.652Z,1020.6
2022-11-06T11:32:56.006Z,1020.6
2022-11-06T11:38:25.955Z,1020.5
2022-11-06T11:43:53.732Z,1020.4
2022-11-06T11:49:31.192Z,1020.3
2022-11-06T11:54:48.682Z,1020.4
2022-11-06T12:00:36.020Z,1020.2
2022-11-06T12:05:57.001Z,1020.3
2022-11-06T12:11:32.105Z,1020.1
2022-11-06T12:17:09.528Z,1020.2
2022-11-06T12:22:31.165Z,1020.1
2022-11-06T12:28:15.879Z,1020.3
2022-11-06T12:34:07.581Z,1020.1
2022-11-06T12:39:30.540Z,1019.9
2022-11-06T12:44:54.783Z,1019.7
2022-11-06T12:50:23.654Z,1019.6
2022-11-06T12:56:08.901Z,1019.6
2022-11-06T13:01:32.832Z,1019.4
2022-11-06T13:07:05.776Z,1019.5
2022-11-06T13:12:41.840Z,1019.4
2022-11-06T13:18:06.985Z,1019.4
2022-11-06T13:23:39.471Z,1019.4
2022-11-06T13:34:46.150Z,1019.3
2022-11-06T13:40:08.789Z,1019.3
2022-11-06T13:45:55.399Z,1019.4
2022-11-06T13:51:27.279Z,1019.3
2022-11-06T13:57:09.691Z,1019.3
2022-11-06T14:02:31.072Z,1019.2
2022-11-06T14:08:01.029Z,1019.1
2022-11-06T14:13:36.417Z,1019
2022-11-06T14:19:08.567Z,1018.9
2022-11-06T14:24:47.093Z,1019.1
2022-11-06T14:30:20.327Z,1019.2
2022-11-06T14:35:53.047Z,1019.2
2022-11-06T14:41:18.932Z,1019.2
2022-11-06T14:46:43.408Z,1019.2
2022-11-06T14:52:08.089Z,1019.2
2022-11-06T14:57:48.881Z,1019.2
2022-11-06T15:03:22.476Z,1019.2
2022-11-06T15:08:45.091Z,1019
2022-11-06T15:14:24.047Z,1019.1
2022-11-06T15:20:14.318Z,1019.1
2022-11-06T15:25:32.917Z,1019
2022-11-06T15:31:17.447Z,1019.1
2022-11-06T15:36:41.729Z,1019.2
2022-11-06T15:41:59.571Z,1019.4
2022-11-06T15:47:45.216Z,1019.3
2022-11-06T15:53:09.863Z,1019.4
2022-11-06T15:58:50.187Z,1019.4
2022-11-06T16:04:27.163Z,1019.4
2022-11-06T16:09:48.260Z,1019.5
2022-11-06T16:15:26.907Z,1019.5
2022-11-06T16:21:08.571Z,1019.3
2022-11-06T16:26:20.413Z,1019.4
2022-11-06T16:31:51.332Z,1019.6
2022-11-06T16:37:31.671Z,1019.6
2022-11-06T16:42:54.982Z,1019.7
2022-11-06T16:48:28.715Z,1019.8
2022-11-06T16:54:27.376Z,1019.6
2022-11-06T16:59:54.910Z,1019.4
2022-11-06T17:05:12.091Z,1019.6
2022-11-06T17:10:47.572Z,1019.8
2022-11-06T17:16:23.451Z,1019.9
2022-11-06T17:21:44.976Z,1020
2022-11-06T17:27:29.512Z,1020.2
2022-11-06T17:32:55.750Z,1020.1
2022-11-06T17:38:39.708Z,1020.1
2022-11-06T17:44:00.509Z,1020.2
2022-11-06T17:49:50.026Z,1020.1
2022-11-06T17:55:21.299Z,1020.2
2022-11-06T18:00:47.244Z,1020.3
2022-11-06T18:06:18.684Z,1020.6
2022-11-06T18:11:34.674Z,1020.9
2022-11-06T18:17:26.766Z,1020.8
2022-11-06T18:23:04.577Z,1020.8
2022-11-06T18:28:12.591Z,1020.8
2022-11-06T18:33:45.633Z,1020.9
2022-11-06T18:39:32.878Z,1020.9
2022-11-06T18:45:12.722Z,1020.9
2022-11-06T18:50:36.785Z,1021.1
2022-11-06T18:56:02.750Z,1021
2022-11-06T19:01:48.326Z,1021
2022-11-06T19:07:03.104Z,1021.4
2022-11-06T19:12:41.810Z,1021.2
2022-11-06T19:18:23.126Z,1021.3
2022-11-06T19:23:43.661Z,1021.5
2022-11-06T19:29:20.488Z,1021.5
2022-11-06T19:34:58.770Z,1021.4
2022-11-06T19:40:19.436Z,1021.5
2022-11-06T19:45:46.763Z,1021.3
2022-11-06T19:51:30.734Z,1021.5
2022-11-06T19:57:28.019Z,1021.6
2022-11-06T20:02:23.369Z,1021.7
2022-11-06T20:07:59.039Z,1021.6
2022-11-06T20:13:40.397Z,1021.6
2022-11-06T20:19:25.746Z,1021.5
2022-11-06T20:24:51.825Z,1021.6
2022-11-06T20:30:15.076Z,1021.7
2022-11-06T20:35:40.462Z,1021.7
2022-11-06T20:41:19.915Z,1021.7
2022-11-06T20:46:48.196Z,1021.8
2022-11-06T20:52:28.559Z,1021.9
2022-11-06T20:57:49.035Z,1021.9
2022-11-06T21:03:17.358Z,1021.8
2022-11-06T21:09:01.986Z,1022
2022-11-06T21:14:33.446Z,1022.1
2022-11-06T21:20:09.789Z,1022
2022-11-06T21:25:28.303Z,1021.9
2022-11-06T21:31:12.347Z,1022
2022-11-06T21:36:42.201Z,1022
2022-11-06T21:42:05.785Z,1021.8
2022-11-06T21:47:37.445Z,1021.8
2022-11-06T21:53:28.312Z,1021.8
2022-11-06T21:58:53.293Z,1021.8
2022-11-06T22:04:19.198Z,1021.9
2022-11-06T22:10:10.057Z,1022
2022-11-06T22:15:26.466Z,1022.1
2022-11-06T22:20:56.760Z,1022
2022-11-06T22:26:47.028Z,1022
2022-11-06T22:31:58.404Z,1022.2
2022-11-06T22:37:45.043Z,1022.3
2022-11-06T22:43:12.974Z,1022.2
2022-11-06T22:48:52.916Z,1022.2
2022-11-06T22:54:32.057Z,1022.3
2022-11-06T22:59:43.382Z,1022.4
2022-11-06T23:05:32.119Z,1022.4
2022-11-06T23:11:06.723Z,1022.4
2022-11-06T23:16:16.192Z,1022.4
2022-11-06T23:22:06.576Z,1022.2
2022-11-06T23:27:27.747Z,1022.4
2022-11-06T23:33:02.365Z,1022.4
2022-11-06T23:38:37.264Z,1022.2
2022-11-06T23:44:24.250Z,1022.4
2022-11-06T23:49:46.141Z,1022.4
2022-11-06T23:55:11.182Z,1022.2
